createdAt,value
2022-11-28T00:02:07.660Z,17.60
2022-11-28T00:04:35.351Z,13.38
2022-11-28T00:07:03.058Z,14.80
2022-11-28T00:09:30.789Z,14.68
2022-11-28T00:11:58.310Z,16.15
2022-11-28T00:14:25.882Z,15.50
2022-11-28T00:16:53.407Z,15.30
2022-11-28T00:19:20.974Z,13.90
2022-11-28T00:21:48.609Z,15.05
2022-11-28T00:24:16.207Z,15.40
2022-11-28T00:26:43.870Z,14.82
2022-11-28T00:29:11.658Z,14.90
2022-11-28T00:31:44.915Z,10.90
2022-11-28T00:34:13.464Z,15.45
2022-11-28T00:36:41.156Z,13.30
2022-11-28T00:39:08.768Z,15.40
2022-11-28T00:41:36.608Z,16.77
2022-11-28T00:44:04.376Z,13.57
2022-11-28T00:46:32.069Z,15.65
2022-11-28T00:49:00.099Z,19.45
2022-11-28T00:51:28.744Z,14.45
2022-11-28T00:53:57.546Z,14.40
2022-11-28T00:56:26.547Z,16.05
2022-11-28T00:58:54.443Z,16.42
2022-11-28T01:01:26.613Z,15.15
2022-11-28T01:03:55.591Z,17.38
2022-11-28T01:06:34.725Z,16.30
2022-11-28T01:09:03.689Z,13.02
2022-11-28T01:11:31.154Z,15.52
2022-11-28T01:13:59.619Z,14.18
2022-11-28T01:16:27.304Z,11.43
2022-11-28T01:18:55.129Z,16.27
2022-11-28T01:21:22.772Z,14.05
2022-11-28T01:23:50.573Z,13.80
2022-11-28T01:26:19.855Z,13.25
2022-11-28T01:28:48.028Z,13.68
2022-11-28T01:31:16.687Z,11.80
2022-11-28T01:33:44.628Z,14.93
2022-11-28T01:36:12.829Z,12.85
2022-11-28T01:38:40.775Z,13.20
2022-11-28T01:41:08.380Z,13.60
2022-11-28T01:43:36.592Z,13.70
2022-11-28T01:46:05.185Z,16.90
2022-11-28T01:48:35.068Z,12.77
2022-11-28T01:51:06.484Z,13.95
2022-11-28T01:53:35.566Z,16.15
2022-11-28T01:56:06.620Z,14.88
2022-11-28T02:01:01.965Z,13.98
2022-11-28T02:03:35.564Z,13.23
2022-11-28T02:06:03.470Z,15.10
2022-11-28T02:08:33.940Z,13.45
2022-11-28T02:11:04.578Z,12.23
2022-11-28T02:13:51.029Z,15.77
2022-11-28T02:16:21.670Z,13.60
2022-11-28T02:18:50.760Z,15.63
2022-11-28T02:21:23.907Z,14.45
2022-11-28T02:24:16.133Z,13.60
2022-11-28T02:27:06.962Z,13.82
2022-11-28T02:29:53.514Z,14.75
2022-11-28T02:32:21.065Z,12.98
2022-11-28T02:35:02.380Z,15.43
2022-11-28T02:37:36.995Z,16.27
2022-11-28T02:40:22.856Z,13.25
2022-11-28T02:43:02.605Z,13.77
2022-11-28T02:45:30.241Z,13.70
2022-11-28T02:48:05.515Z,15.50
2022-11-28T02:50:36.457Z,16.67
2022-11-28T02:53:09.269Z,18.98
2022-11-28T02:55:41.221Z,16.75
2022-11-28T02:58:09.979Z,16.30
2022-11-28T03:00:38.807Z,18.35
2022-11-28T03:03:06.312Z,15.85
2022-11-28T03:05:46.741Z,17.25
2022-11-28T03:08:22.566Z,16.07
2022-11-28T03:11:13.665Z,17.98
2022-11-28T03:13:48.574Z,17.88
2022-11-28T03:16:28.476Z,16.02
2022-11-28T03:19:00.259Z,18.02
2022-11-28T03:22:00.452Z,18.17
2022-11-28T03:24:30.811Z,20.02
2022-11-28T03:27:03.679Z,16.23
2022-11-28T03:29:42.903Z,15.40
2022-11-28T03:32:21.885Z,16.63
2022-11-28T03:34:51.451Z,17.70
2022-11-28T03:37:22.245Z,17.52
2022-11-28T03:39:52.912Z,17.13
2022-11-28T03:42:22.707Z,15.18
2022-11-28T03:45:02.209Z,19.38
2022-11-28T03:47:32.115Z,17.80
2022-11-28T03:50:01.821Z,16.85
2022-11-28T03:52:30.920Z,20.67
2022-11-28T03:55:03.910Z,15.70
2022-11-28T03:57:35.743Z,19.42
2022-11-28T04:00:07.496Z,19.25
2022-11-28T04:02:50.212Z,19.55
2022-11-28T04:05:38.068Z,20.25
2022-11-28T04:08:13.093Z,16.45
2022-11-28T04:10:45.303Z,18.17
2022-11-28T04:13:19.364Z,19.63
2022-11-28T04:15:53.021Z,16.80
2022-11-28T04:18:24.603Z,16.85
2022-11-28T04:20:59.085Z,22.15
2022-11-28T04:23:27.840Z,18.88
2022-11-28T04:26:01.782Z,19.65
2022-11-28T04:28:30.976Z,17.55
2022-11-28T04:30:59.483Z,19.65
2022-11-28T04:33:29.157Z,20.10
2022-11-28T04:35:57.409Z,19.95
2022-11-28T04:38:26.562Z,21.38
2022-11-28T04:41:09.353Z,23.55
2022-11-28T04:43:40.681Z,19.90
2022-11-28T04:46:11.905Z,20.92
2022-11-28T04:48:39.563Z,19.83
2022-11-28T04:51:15.742Z,18.05
2022-11-28T04:54:02.085Z,21.75
2022-11-28T04:56:32.179Z,19.23
2022-11-28T04:59:00.242Z,19.63
2022-11-28T05:01:29.704Z,19.00
2022-11-28T05:03:57.392Z,20.48
2022-11-28T05:06:28.468Z,17.17
2022-11-28T05:11:23.537Z,16.60
2022-11-28T05:13:51.124Z,20.65
2022-11-28T05:16:19.340Z,20.88
2022-11-28T05:18:46.947Z,19.45
2022-11-28T05:21:14.744Z,19.00
2022-11-28T05:23:43.531Z,19.17
2022-11-28T05:26:12.558Z,18.55
2022-11-28T05:28:40.255Z,17.35
2022-11-28T05:31:07.930Z,18.13
2022-11-28T05:33:35.556Z,19.38
2022-11-28T05:36:12.382Z,18.80
2022-11-28T05:38:41.258Z,20.02
2022-11-28T05:41:09.302Z,20.00
2022-11-28T05:43:37.007Z,18.33
2022-11-28T05:46:07.723Z,19.17
2022-11-28T05:48:35.979Z,18.15
2022-11-28T05:51:06.991Z,16.05
2022-11-28T05:53:34.609Z,19.85
2022-11-28T05:56:07.415Z,16.92
2022-11-28T05:58:35.107Z,19.60
2022-11-28T06:01:19.527Z,16.77
2022-11-28T06:03:47.580Z,17.77
2022-11-28T06:06:16.064Z,17.42
2022-11-28T06:08:44.146Z,19.65
2022-11-28T06:11:12.120Z,17.50
2022-11-28T06:13:39.695Z,16.50
2022-11-28T06:16:16.911Z,16.75
2022-11-28T06:18:44.710Z,17.77
2022-11-28T06:21:13.203Z,14.95
2022-11-28T06:23:41.605Z,18.63
2022-11-28T06:26:10.637Z,18.88
2022-11-28T06:28:38.502Z,19.52
2022-11-28T06:31:10.264Z,17.23
2022-11-28T06:33:37.814Z,14.90
2022-11-28T06:36:06.242Z,14.98
2022-11-28T06:38:33.808Z,18.75
2022-11-28T06:41:03.100Z,19.08
2022-11-28T06:43:30.680Z,15.85
2022-11-28T06:45:58.510Z,18.02
2022-11-28T06:48:26.534Z,12.55
2022-11-28T06:50:54.654Z,17.00
2022-11-28T06:53:24.206Z,18.17
2022-11-28T06:55:53.687Z,18.73
2022-11-28T06:58:21.377Z,17.88
2022-11-28T07:00:48.989Z,17.63
2022-11-28T07:03:16.662Z,20.35
2022-11-28T07:05:44.284Z,21.25
2022-11-28T07:08:11.879Z,20.52
2022-11-28T07:10:39.446Z,23.58
2022-11-28T07:13:07.620Z,23.75
2022-11-28T07:15:35.273Z,18.58
2022-11-28T07:18:02.896Z,19.00
2022-11-28T07:20:30.445Z,19.50
2022-11-28T07:22:57.966Z,16.42
2022-11-28T07:25:25.461Z,20.63
2022-11-28T07:27:53.013Z,20.23
2022-11-28T07:30:20.693Z,18.05
2022-11-28T07:32:48.291Z,16.70
2022-11-28T07:35:15.895Z,19.08
2022-11-28T07:37:43.476Z,19.63
2022-11-28T07:40:13.404Z,18.08
2022-11-28T07:42:40.984Z,19.80
2022-11-28T07:45:10.008Z,20.58
2022-11-28T07:47:37.780Z,20.38
2022-11-28T07:50:05.843Z,22.55
2022-11-28T07:52:33.451Z,20.70
2022-11-28T07:55:01.108Z,19.48
2022-11-28T07:57:30.503Z,17.70
2022-11-28T08:00:00.683Z,18.63
2022-11-28T08:02:32.338Z,17.77
2022-11-28T08:05:00.179Z,20.92
2022-11-28T08:07:27.829Z,17.63
2022-11-28T08:09:55.471Z,15.82
2022-11-28T08:12:23.065Z,20.67
2022-11-28T08:14:50.710Z,17.92
2022-11-28T08:17:18.266Z,18.02
2022-11-28T08:19:45.914Z,17.08
2022-11-28T08:22:13.482Z,19.25
2022-11-28T08:24:41.150Z,21.98
2022-11-28T08:27:08.897Z,20.75
2022-11-28T08:29:36.407Z,17.83
2022-11-28T08:32:03.955Z,18.88
2022-11-28T08:34:31.461Z,17.90
2022-11-28T08:36:58.997Z,17.88
2022-11-28T08:39:26.634Z,20.73
2022-11-28T08:41:57.025Z,18.20
2022-11-28T08:44:24.705Z,17.40
2022-11-28T08:46:52.432Z,22.98
2022-11-28T08:49:20.023Z,21.98
2022-11-28T08:51:47.491Z,19.52
2022-11-28T08:54:15.722Z,20.23
2022-11-28T08:56:45.172Z,22.05
2022-11-28T08:59:12.843Z,22.42
2022-11-28T09:01:40.586Z,26.38
2022-11-28T09:04:08.224Z,20.35
2022-11-28T09:06:36.788Z,22.83
2022-11-28T09:09:04.348Z,18.88
2022-11-28T09:11:32.053Z,22.85
2022-11-28T09:14:00.507Z,20.00
2022-11-28T09:16:28.161Z,21.33
2022-11-28T09:18:58.945Z,20.95
2022-11-28T09:21:27.016Z,21.45
2022-11-28T09:23:55.691Z,22.00
2022-11-28T09:26:24.672Z,20.17
2022-11-28T09:28:52.545Z,21.73
2022-11-28T09:31:20.254Z,20.25
2022-11-28T09:33:49.329Z,22.08
2022-11-28T09:36:18.781Z,22.52
2022-11-28T09:38:46.996Z,22.48
2022-11-28T09:41:27.165Z,18.85
2022-11-28T09:43:56.563Z,17.50
2022-11-28T09:46:28.652Z,18.85
2022-11-28T09:48:58.830Z,23.77
2022-11-28T09:53:58.048Z,23.73
2022-11-28T09:56:27.871Z,22.02
2022-11-28T09:58:57.829Z,17.85
2022-11-28T10:01:25.396Z,18.67
2022-11-28T10:04:11.653Z,17.10
2022-11-28T10:06:53.326Z,21.20
2022-11-28T10:09:33.277Z,19.83
2022-11-28T10:12:13.029Z,16.70
2022-11-28T10:14:50.319Z,21.25
2022-11-28T10:17:20.990Z,21.45
2022-11-28T10:19:54.702Z,20.73
2022-11-28T10:22:55.066Z,18.85
2022-11-28T10:25:29.439Z,20.40
2022-11-28T10:27:57.416Z,19.35
2022-11-28T10:30:26.492Z,22.98
2022-11-28T10:33:13.219Z,16.17
2022-11-28T10:36:13.283Z,18.45
2022-11-28T10:38:40.933Z,20.25
2022-11-28T10:41:13.197Z,16.38
2022-11-28T10:43:56.167Z,18.33
2022-11-28T10:46:39.062Z,16.55
2022-11-28T10:49:22.040Z,16.85
2022-11-28T10:51:52.378Z,15.88
2022-11-28T10:54:20.399Z,18.35
2022-11-28T10:56:50.928Z,15.10
2022-11-28T10:59:34.334Z,15.65
2022-11-28T11:02:04.638Z,18.83
2022-11-28T11:04:34.414Z,18.75
2022-11-28T11:07:14.808Z,19.25
2022-11-28T11:09:46.014Z,16.55
2022-11-28T11:12:20.323Z,16.85
2022-11-28T11:14:48.175Z,19.02
2022-11-28T11:17:45.266Z,16.83
2022-11-28T11:20:27.226Z,14.25
2022-11-28T11:22:56.444Z,19.75
2022-11-28T11:25:25.349Z,16.42
2022-11-28T11:27:57.518Z,18.13
2022-11-28T11:30:26.063Z,17.95
2022-11-28T11:32:55.784Z,20.23
2022-11-28T11:35:25.395Z,16.60
2022-11-28T11:37:53.276Z,18.80
2022-11-28T11:40:20.763Z,17.13
2022-11-28T11:42:56.671Z,15.15
2022-11-28T11:45:28.458Z,16.92
2022-11-28T11:47:56.867Z,18.55
2022-11-28T11:50:25.709Z,19.35
2022-11-28T11:53:11.591Z,16.98
2022-11-28T11:55:44.120Z,13.77
2022-11-28T11:58:15.179Z,16.17
2022-11-28T12:03:23.929Z,17.15
2022-11-28T12:06:13.657Z,16.10
2022-11-28T12:08:52.896Z,16.50
2022-11-28T12:11:28.848Z,14.00
2022-11-28T12:13:58.175Z,14.65
2022-11-28T12:16:28.824Z,13.15
2022-11-28T12:19:15.249Z,16.00
2022-11-28T12:21:51.848Z,15.43
2022-11-28T12:24:24.453Z,13.65
2022-11-28T12:27:12.329Z,14.30
2022-11-28T12:30:01.390Z,13.20
2022-11-28T12:32:47.714Z,12.93
2022-11-28T12:35:37.349Z,13.80
2022-11-28T12:38:12.060Z,16.17
2022-11-28T12:40:42.915Z,14.45
2022-11-28T12:43:17.289Z,16.73
2022-11-28T12:45:52.343Z,14.75
2022-11-28T12:48:38.365Z,15.40
2022-11-28T12:51:06.062Z,15.90
2022-11-28T12:53:36.653Z,15.77
2022-11-28T12:56:04.257Z,12.32
2022-11-28T12:58:37.751Z,14.13
2022-11-28T13:01:24.248Z,13.63
2022-11-28T13:04:01.089Z,12.80
2022-11-28T13:06:47.610Z,16.33
2022-11-28T13:09:18.518Z,13.27
2022-11-28T13:11:52.993Z,13.32
2022-11-28T13:14:20.507Z,12.98
2022-11-28T13:16:52.318Z,16.40
2022-11-28T13:19:32.196Z,12.85
2022-11-28T13:22:05.717Z,12.30
2022-11-28T13:24:50.382Z,13.55
2022-11-28T13:27:21.915Z,17.02
2022-11-28T13:30:03.770Z,15.70
2022-11-28T13:32:40.481Z,14.13
2022-11-28T13:35:12.011Z,16.08
2022-11-28T13:40:48.693Z,13.88
2022-11-28T13:43:36.987Z,11.98
2022-11-28T13:46:05.140Z,16.92
2022-11-28T13:51:32.031Z,11.63
2022-11-28T13:54:21.488Z,16.98
2022-11-28T13:57:04.666Z,35.45
2022-11-28T13:59:32.917Z,20.92
2022-11-28T14:02:01.755Z,14.73
2022-11-28T14:04:30.616Z,19.50
2022-11-28T14:07:08.404Z,17.23
2022-11-28T14:09:47.624Z,15.70
2022-11-28T14:12:41.430Z,14.43
2022-11-28T14:15:27.807Z,12.98
2022-11-28T14:18:14.251Z,15.63
2022-11-28T14:20:58.787Z,14.65
2022-11-28T14:23:29.776Z,17.13
2022-11-28T14:25:57.755Z,13.95
2022-11-28T14:28:36.774Z,17.75
2022-11-28T14:31:04.421Z,18.75
2022-11-28T14:33:37.940Z,17.25
2022-11-28T14:36:26.024Z,18.20
2022-11-28T14:39:06.024Z,15.68
2022-11-28T14:41:54.514Z,12.52
2022-11-28T14:44:44.035Z,14.10
2022-11-28T14:47:27.580Z,11.07
2022-11-28T14:50:17.652Z,13.65
2022-11-28T14:52:50.942Z,16.20
2022-11-28T14:55:21.288Z,11.75
2022-11-28T14:58:02.533Z,14.37
2022-11-28T15:00:38.783Z,16.42
2022-11-28T15:03:22.824Z,18.33
2022-11-28T15:05:50.593Z,18.45
2022-11-28T15:08:38.127Z,14.10
2022-11-28T15:11:26.173Z,16.58
2022-11-28T15:14:05.284Z,16.63
2022-11-28T15:16:35.193Z,18.55
2022-11-28T15:19:08.939Z,17.15
2022-11-28T15:21:43.719Z,20.15
2022-11-28T15:24:31.198Z,20.58
2022-11-28T15:26:59.863Z,20.58
2022-11-28T15:29:28.750Z,21.00
2022-11-28T15:31:57.143Z,20.48
2022-11-28T15:34:35.370Z,19.65
2022-11-28T15:37:08.059Z,18.95
2022-11-28T15:39:41.128Z,17.80
2022-11-28T15:42:35.983Z,20.27
2022-11-28T15:45:03.784Z,17.10
2022-11-28T15:47:31.947Z,21.00
2022-11-28T15:50:11.817Z,19.73
2022-11-28T15:52:39.491Z,22.80
2022-11-28T15:55:17.236Z,21.15
2022-11-28T15:57:44.870Z,17.48
2022-11-28T16:00:16.129Z,17.38
2022-11-28T16:02:44.549Z,20.42
2022-11-28T16:05:22.615Z,21.05
2022-11-28T16:07:51.710Z,21.00
2022-11-28T16:10:37.172Z,20.00
2022-11-28T16:13:13.969Z,20.77
2022-11-28T16:15:49.845Z,21.00
2022-11-28T16:18:20.491Z,20.23
2022-11-28T16:20:48.339Z,19.05
2022-11-28T16:23:19.710Z,22.38
2022-11-28T16:25:58.772Z,20.00
2022-11-28T16:28:37.075Z,18.60
2022-11-28T16:31:14.196Z,20.20
2022-11-28T16:33:45.480Z,22.65
2022-11-28T16:38:41.121Z,25.40
2022-11-28T16:41:15.013Z,18.77
2022-11-28T16:43:42.625Z,21.45
2022-11-28T16:46:19.485Z,21.25
2022-11-28T16:48:57.371Z,18.05
2022-11-28T16:51:29.264Z,17.52
2022-11-28T16:54:00.973Z,10.48
2022-11-28T16:56:31.551Z,9.85
2022-11-28T16:59:08.320Z,6.30
2022-11-28T17:01:36.552Z,4.85
2022-11-28T17:04:04.588Z,2.20
2022-11-28T17:06:42.540Z,1.38
2022-11-28T17:09:12.299Z,1.27
2022-11-28T17:11:55.079Z,2.75
2022-11-28T17:14:22.695Z,1.35
2022-11-28T17:16:50.411Z,2.10
2022-11-28T17:19:18.114Z,1.25
2022-11-28T17:21:47.397Z,1.55
2022-11-28T17:24:19.464Z,3.17
2022-11-28T17:26:47.459Z,0.95
2022-11-28T17:29:15.563Z,1.05
2022-11-28T17:31:43.790Z,1.05
2022-11-28T17:34:16.040Z,2.15
2022-11-28T17:36:43.692Z,1.48
2022-11-28T17:39:11.875Z,1.88
2022-11-28T17:41:39.749Z,1.77
2022-11-28T17:44:07.954Z,1.67
2022-11-28T17:46:35.526Z,1.10
2022-11-28T17:49:03.274Z,1.50
2022-11-28T17:51:31.120Z,1.27
2022-11-28T17:53:59.135Z,3.20
2022-11-28T17:56:27.076Z,0.98
2022-11-28T17:58:55.286Z,2.10
2022-11-28T18:01:25.502Z,1.65
2022-11-28T18:03:58.961Z,2.03
2022-11-28T18:06:29.497Z,1.08
2022-11-28T18:09:00.927Z,0.70
2022-11-28T18:11:29.433Z,0.75
2022-11-28T18:13:58.084Z,2.38
2022-11-28T18:16:26.467Z,0.95
2022-11-28T18:18:54.578Z,2.15
2022-11-28T18:21:23.464Z,5.22
2022-11-28T18:24:00.998Z,1.63
2022-11-28T18:26:30.786Z,1.30
2022-11-28T18:28:59.418Z,1.90
2022-11-28T18:31:29.286Z,1.65
2022-11-28T18:34:02.038Z,2.17
2022-11-28T18:36:33.521Z,4.30
2022-11-28T18:39:03.013Z,1.30
2022-11-28T18:41:31.133Z,1.65
2022-11-28T18:44:00.289Z,1.90
2022-11-28T18:46:29.179Z,1.77
2022-11-28T18:48:57.646Z,2.22
2022-11-28T18:51:29.888Z,0.35
2022-11-28T18:53:58.272Z,2.75
2022-11-28T18:56:30.019Z,1.13
2022-11-28T18:58:58.810Z,1.73
2022-11-28T19:01:46.404Z,0.93
2022-11-28T19:04:15.701Z,1.40
2022-11-28T19:06:48.704Z,2.47
2022-11-28T19:09:17.695Z,1.40
2022-11-28T19:11:46.171Z,2.20
2022-11-28T19:14:18.674Z,2.47
2022-11-28T19:16:48.392Z,2.67
2022-11-28T19:19:18.581Z,1.83
2022-11-28T19:21:56.494Z,2.70
2022-11-28T19:27:14.440Z,2.08
2022-11-28T19:29:47.826Z,1.90
2022-11-28T19:32:18.108Z,2.35
2022-11-28T19:34:53.471Z,1.40
2022-11-28T19:37:21.189Z,2.28
2022-11-28T19:39:49.202Z,1.98
2022-11-28T19:42:26.670Z,1.50
2022-11-28T19:44:54.675Z,1.98
2022-11-28T19:50:14.973Z,0.88
2022-11-28T19:52:43.420Z,2.13
2022-11-28T19:55:13.972Z,1.45
2022-11-28T19:57:44.196Z,0.77
2022-11-28T20:00:15.672Z,3.05
2022-11-28T20:02:48.008Z,1.23
2022-11-28T20:05:27.588Z,1.13
2022-11-28T20:07:58.683Z,2.75
2022-11-28T20:10:33.480Z,1.52
2022-11-28T20:13:01.660Z,1.67
2022-11-28T20:15:31.321Z,2.97
2022-11-28T20:18:02.473Z,4.63
2022-11-28T20:20:33.633Z,4.80
2022-11-28T20:23:01.745Z,3.33
2022-11-28T20:25:29.626Z,1.60
2022-11-28T20:27:57.411Z,2.17
2022-11-28T20:30:25.293Z,3.25
2022-11-28T20:32:54.939Z,5.35
2022-11-28T20:35:25.286Z,5.40
2022-11-28T20:37:54.141Z,4.38
2022-11-28T20:40:21.872Z,6.70
2022-11-28T20:42:49.705Z,3.47
2022-11-28T20:45:17.492Z,4.45
2022-11-28T20:47:49.630Z,8.90
2022-11-28T20:50:17.828Z,4.13
2022-11-28T20:52:47.131Z,4.40
2022-11-28T20:55:14.854Z,5.68
2022-11-28T20:57:42.562Z,2.08
2022-11-28T21:00:10.510Z,3.00
2022-11-28T21:02:38.350Z,5.20
2022-11-28T21:05:09.248Z,3.30
2022-11-28T21:07:39.217Z,3.63
2022-11-28T21:10:12.443Z,4.65
2022-11-28T21:12:40.306Z,6.20
2022-11-28T21:15:09.833Z,4.45
2022-11-28T21:17:37.609Z,7.40
2022-11-28T21:20:05.696Z,5.40
2022-11-28T21:22:33.862Z,6.18
2022-11-28T21:25:01.471Z,5.32
2022-11-28T21:27:29.169Z,4.82
2022-11-28T21:29:56.787Z,5.90
2022-11-28T21:32:24.519Z,7.63
2022-11-28T21:34:53.516Z,5.32
2022-11-28T21:37:21.214Z,8.40
2022-11-28T21:39:48.858Z,6.15
2022-11-28T21:42:20.484Z,3.55
2022-11-28T21:44:48.821Z,5.90
2022-11-28T21:47:19.491Z,7.78
2022-11-28T21:49:47.428Z,6.90
2022-11-28T21:52:16.641Z,3.80
2022-11-28T21:54:45.147Z,8.82
2022-11-28T21:57:12.980Z,7.10
2022-11-28T21:59:40.484Z,6.13
2022-11-28T22:02:11.829Z,6.63
2022-11-28T22:04:39.831Z,6.35
2022-11-28T22:07:07.608Z,6.05
2022-11-28T22:09:35.212Z,4.88
2022-11-28T22:12:02.917Z,9.75
2022-11-28T22:14:36.365Z,4.32
2022-11-28T22:17:04.378Z,6.97
2022-11-28T22:19:31.952Z,6.80
2022-11-28T22:21:59.573Z,6.20
2022-11-28T22:24:27.208Z,7.32
2022-11-28T22:26:55.869Z,6.18
2022-11-28T22:29:24.456Z,5.57
2022-11-28T22:31:52.962Z,7.53
2022-11-28T22:34:20.594Z,6.50
2022-11-28T22:36:48.598Z,10.38
2022-11-28T22:39:16.418Z,4.43
2022-11-28T22:41:44.328Z,5.97
2022-11-28T22:44:12.093Z,7.88
2022-11-28T22:46:47.367Z,8.52
2022-11-28T22:49:15.131Z,7.25
2022-11-28T22:51:42.801Z,7.28
2022-11-28T22:54:12.979Z,6.55
2022-11-28T22:56:40.936Z,8.82
2022-11-28T22:59:15.590Z,7.03
2022-11-28T23:01:43.692Z,7.75
2022-11-28T23:04:12.074Z,10.70
2022-11-28T23:06:40.445Z,6.07
2022-11-28T23:09:08.725Z,9.05
2022-11-28T23:11:37.230Z,6.43
2022-11-28T23:14:06.254Z,6.47
2022-11-28T23:16:37.893Z,4.47
2022-11-28T23:19:08.794Z,7.15
2022-11-28T23:21:37.747Z,4.88
2022-11-28T23:24:06.258Z,4.20
2022-11-28T23:26:34.524Z,7.32
2022-11-28T23:29:05.155Z,6.93
2022-11-28T23:31:35.525Z,6.38
2022-11-28T23:34:03.844Z,6.43
2022-11-28T23:36:37.010Z,11.48
2022-11-28T23:39:11.472Z,5.63
2022-11-28T23:41:39.059Z,9.77
2022-11-28T23:44:06.759Z,8.60
2022-11-28T23:46:34.551Z,8.07
2022-11-28T23:49:03.017Z,7.35
2022-11-28T23:51:33.214Z,9.00
2022-11-28T23:54:01.316Z,8.02
2022-11-28T23:56:31.100Z,6.47
2022-11-28T23:59:01.186Z,10.93
